createdAt,value
2022-09-29T00:00:38.985Z,10.19
2022-09-29T00:06:02.471Z,10.16
2022-09-29T00:11:10.926Z,10.09
2022-09-29T00:16:14.504Z,10.06
2022-09-29T00:21:20.030Z,10.10
2022-09-29T00:26:25.449Z,10.15
2022-09-29T00:31:30.127Z,10.15
2022-09-29T00:36:33.601Z,10.16
2022-09-29T00:41:39.091Z,10.18
2022-09-29T00:47:03.264Z,10.15
2022-09-29T00:52:31.965Z,10.08
2022-09-29T00:57:45.107Z,10.08
2022-09-29T01:02:56.306Z,10.08
2022-09-29T01:08:09.034Z,10.08
2022-09-29T01:13:12.960Z,10.10
2022-09-29T01:18:16.577Z,10.06
2022-09-29T01:23:57.675Z,9.96
2022-09-29T01:29:22.797Z,9.81
2022-09-29T01:34:53.243Z,9.71
2022-09-29T01:40:17.124Z,9.57
2022-09-29T01:45:34.587Z,9.40
2022-09-29T01:50:50.895Z,9.26
2022-09-29T01:56:00.556Z,9.19
2022-09-29T02:01:10.609Z,9.12
2022-09-29T02:06:22.434Z,9.14
2022-09-29T02:11:27.793Z,9.21
2022-09-29T02:16:37.431Z,9.24
2022-09-29T02:21:41.071Z,9.27
2022-09-29T02:26:45.464Z,9.33
2022-09-29T02:31:49.904Z,9.37
2022-09-29T02:37:14.557Z,9.40
2022-09-29T02:42:17.770Z,9.41
2022-09-29T02:47:48.105Z,9.40
2022-09-29T02:53:29.818Z,9.39
2022-09-29T02:58:48.349Z,9.39
2022-09-29T03:03:51.942Z,9.37
2022-09-29T03:08:55.930Z,9.36
2022-09-29T03:13:59.651Z,9.34
2022-09-29T03:19:05.588Z,9.31
2022-09-29T03:24:08.933Z,9.29
2022-09-29T03:29:12.252Z,9.24
2022-09-29T03:34:15.554Z,9.22
2022-09-29T03:39:18.929Z,9.21
2022-09-29T03:44:22.895Z,9.18
2022-09-29T03:49:26.327Z,9.13
2022-09-29T03:54:29.720Z,9.10
2022-09-29T03:59:33.030Z,9.06
2022-09-29T04:04:36.548Z,9.03
2022-09-29T04:09:39.861Z,9.03
2022-09-29T04:14:43.473Z,9.04
2022-09-29T04:19:46.787Z,9.07
2022-09-29T04:24:51.224Z,9.08
2022-09-29T04:29:54.738Z,9.12
2022-09-29T04:34:58.266Z,9.16
2022-09-29T04:40:03.455Z,9.20
2022-09-29T04:45:07.332Z,9.22
2022-09-29T04:50:10.644Z,9.25
2022-09-29T04:55:14.368Z,9.29
2022-09-29T05:00:18.581Z,9.32
2022-09-29T05:05:22.318Z,9.36
2022-09-29T05:10:26.856Z,9.41
2022-09-29T05:15:30.071Z,9.44
2022-09-29T05:20:40.441Z,9.46
2022-09-29T05:25:46.518Z,9.53
2022-09-29T05:30:49.932Z,9.61
2022-09-29T05:35:53.246Z,9.68
2022-09-29T05:40:56.610Z,9.69
2022-09-29T05:46:02.445Z,9.72
2022-09-29T05:51:12.597Z,9.74
2022-09-29T05:56:22.008Z,9.77
2022-09-29T06:01:26.666Z,9.77
2022-09-29T06:06:30.615Z,9.80
2022-09-29T06:11:34.349Z,9.85
2022-09-29T06:16:37.829Z,9.92
2022-09-29T06:21:41.471Z,9.94
2022-09-29T06:26:46.457Z,9.95
2022-09-29T06:31:50.906Z,9.89
2022-09-29T06:37:13.218Z,9.85
2022-09-29T06:42:16.524Z,9.90
2022-09-29T06:47:19.834Z,9.93
2022-09-29T06:52:25.460Z,9.92
2022-09-29T06:57:32.601Z,10.02
2022-09-29T07:02:36.282Z,10.07
2022-09-29T07:07:39.633Z,10.12
2022-09-29T07:12:47.101Z,10.26
2022-09-29T07:17:53.420Z,10.45
2022-09-29T07:22:56.732Z,10.63
2022-09-29T07:28:00.145Z,10.81
2022-09-29T07:33:04.103Z,10.92
2022-09-29T07:38:07.384Z,11.03
2022-09-29T07:43:10.691Z,11.17
2022-09-29T07:48:14.014Z,11.38
2022-09-29T07:53:17.314Z,11.55
2022-09-29T07:58:20.726Z,11.73
2022-09-29T08:03:26.087Z,11.91
2022-09-29T08:08:29.704Z,12.04
2022-09-29T08:13:33.996Z,12.12
2022-09-29T08:18:37.348Z,12.14
2022-09-29T08:23:43.139Z,12.11
2022-09-29T08:28:58.932Z,12.15
2022-09-29T08:34:05.407Z,12.39
2022-09-29T08:39:10.909Z,12.77
2022-09-29T08:44:38.780Z,13.17
2022-09-29T08:50:51.901Z,13.31
2022-09-29T08:56:04.842Z,13.25
2022-09-29T09:01:29.488Z,13.07
2022-09-29T09:06:41.773Z,12.94
2022-09-29T09:12:05.257Z,12.72
2022-09-29T09:17:33.652Z,12.70
2022-09-29T09:22:55.191Z,12.79
2022-09-29T09:28:04.751Z,13.06
2022-09-29T09:33:30.316Z,13.62
2022-09-29T09:38:55.000Z,14.24
2022-09-29T09:44:06.291Z,14.35
2022-09-29T09:49:24.249Z,14.16
2022-09-29T09:54:52.031Z,13.92
2022-09-29T10:00:16.250Z,13.71
2022-09-29T10:05:26.813Z,13.67
2022-09-29T10:10:31.762Z,13.65
2022-09-29T10:15:45.722Z,13.59
2022-09-29T10:20:49.441Z,13.58
2022-09-29T10:26:17.021Z,13.80
2022-09-29T10:31:27.293Z,14.24
2022-09-29T10:36:34.506Z,14.51
2022-09-29T10:41:54.913Z,14.40
2022-09-29T10:46:58.837Z,14.38
2022-09-29T10:52:24.060Z,14.49
2022-09-29T10:57:31.134Z,14.38
2022-09-29T11:02:39.100Z,14.32
2022-09-29T11:07:49.004Z,14.65
2022-09-29T11:12:52.763Z,14.89
2022-09-29T11:17:57.306Z,14.74
2022-09-29T11:23:06.656Z,14.76
2022-09-29T11:28:38.335Z,14.82
2022-09-29T11:34:00.086Z,14.83
2022-09-29T11:39:36.356Z,14.83
2022-09-29T11:44:58.721Z,14.59
2022-09-29T11:50:15.443Z,14.30
2022-09-29T11:55:49.277Z,14.28
2022-09-29T12:01:15.515Z,14.53
2022-09-29T12:06:34.804Z,14.78
2022-09-29T12:12:28.830Z,15.33
2022-09-29T12:17:38.322Z,15.85
2022-09-29T12:22:46.534Z,16.15
2022-09-29T12:27:50.916Z,15.84
2022-09-29T12:33:19.421Z,15.74
2022-09-29T12:38:36.456Z,15.49
2022-09-29T12:43:46.215Z,15.12
2022-09-29T12:49:04.987Z,14.98
2022-09-29T12:54:36.870Z,14.74
2022-09-29T13:00:06.289Z,14.30
2022-09-29T13:05:20.046Z,14.13
2022-09-29T13:11:04.730Z,14.12
2022-09-29T13:16:11.101Z,14.17
2022-09-29T13:21:40.021Z,14.12
2022-09-29T13:27:01.564Z,14.19
2022-09-29T13:32:05.178Z,14.33
2022-09-29T13:37:20.542Z,14.20
2022-09-29T13:42:29.103Z,13.98
2022-09-29T13:47:34.471Z,13.94
2022-09-29T13:52:41.157Z,14.19
2022-09-29T13:57:52.205Z,14.19
2022-09-29T14:03:05.206Z,14.13
2022-09-29T14:08:08.500Z,14.40
2022-09-29T14:13:14.976Z,14.64
2022-09-29T14:18:41.916Z,14.80
2022-09-29T14:23:46.228Z,15.30
2022-09-29T14:28:53.581Z,15.71
2022-09-29T14:33:57.917Z,16.05
2022-09-29T14:39:25.576Z,16.05
2022-09-29T14:44:49.084Z,15.60
2022-09-29T14:50:17.276Z,14.76
2022-09-29T14:55:39.223Z,13.97
2022-09-29T15:00:43.189Z,13.53
2022-09-29T15:05:46.869Z,13.23
2022-09-29T15:10:54.077Z,12.96
2022-09-29T15:16:18.067Z,12.68
2022-09-29T15:21:39.915Z,12.38
2022-09-29T15:26:46.788Z,12.14
2022-09-29T15:31:50.323Z,12.03
2022-09-29T15:36:56.573Z,11.89
2022-09-29T15:42:02.335Z,11.79
2022-09-29T15:47:05.582Z,11.73
2022-09-29T15:52:15.445Z,11.62
2022-09-29T15:57:58.287Z,11.53
2022-09-29T16:03:11.219Z,11.79
2022-09-29T16:08:23.338Z,13.58
2022-09-29T16:13:31.459Z,14.01
2022-09-29T16:18:45.215Z,13.67
2022-09-29T16:24:31.129Z,12.70
2022-09-29T16:29:36.623Z,11.91
2022-09-29T16:34:39.909Z,11.43
2022-09-29T16:39:46.355Z,10.99
2022-09-29T16:44:53.490Z,10.59
2022-09-29T16:50:03.746Z,10.28
2022-09-29T16:55:20.162Z,10.05
2022-09-29T17:00:27.455Z,9.81
2022-09-29T17:05:35.310Z,9.60
2022-09-29T17:10:40.685Z,9.45
2022-09-29T17:15:46.676Z,9.31
2022-09-29T17:20:52.189Z,9.19
2022-09-29T17:26:15.882Z,9.03
2022-09-29T17:31:19.758Z,8.86
2022-09-29T17:36:24.443Z,8.70
2022-09-29T17:41:28.470Z,8.59
2022-09-29T17:46:32.130Z,8.50
2022-09-29T17:51:35.706Z,8.41
2022-09-29T17:56:44.240Z,8.33
2022-09-29T18:01:50.288Z,8.26
2022-09-29T18:06:54.037Z,8.22
2022-09-29T18:11:58.899Z,8.14
2022-09-29T18:17:06.022Z,8.11
2022-09-29T18:22:09.396Z,8.04
2022-09-29T18:27:15.072Z,7.98
2022-09-29T18:32:19.821Z,7.94
2022-09-29T18:37:23.222Z,7.91
2022-09-29T18:42:28.098Z,7.87
2022-09-29T18:47:31.378Z,7.83
2022-09-29T18:52:42.573Z,7.79
2022-09-29T18:57:47.624Z,7.75
2022-09-29T19:02:51.718Z,7.74
2022-09-29T19:07:58.678Z,7.72
2022-09-29T19:13:04.771Z,7.68
2022-09-29T19:18:08.959Z,7.63
2022-09-29T19:23:12.574Z,7.56
2022-09-29T19:28:17.652Z,7.52
2022-09-29T19:33:22.782Z,7.46
2022-09-29T19:38:26.193Z,7.39
2022-09-29T19:43:29.570Z,7.35
2022-09-29T19:48:32.919Z,7.29
2022-09-29T19:53:36.133Z,7.26
2022-09-29T19:58:41.997Z,7.21
2022-09-29T20:03:48.284Z,7.17
2022-09-29T20:08:51.793Z,7.17
2022-09-29T20:13:55.103Z,7.16
2022-09-29T20:18:58.829Z,7.16
2022-09-29T20:24:02.236Z,7.16
2022-09-29T20:29:05.959Z,7.15
2022-09-29T20:34:11.415Z,7.13
2022-09-29T20:39:21.931Z,7.10
2022-09-29T20:44:26.526Z,6.98
2022-09-29T20:49:29.749Z,6.92
2022-09-29T20:54:33.366Z,6.88
2022-09-29T20:59:36.884Z,6.84
2022-09-29T21:04:40.397Z,6.79
2022-09-29T21:09:43.759Z,6.75
2022-09-29T21:14:47.223Z,6.72
2022-09-29T21:19:50.634Z,6.71
2022-09-29T21:24:53.948Z,6.71
2022-09-29T21:29:57.256Z,6.73
2022-09-29T21:35:01.592Z,6.74
2022-09-29T21:40:05.209Z,6.73
2022-09-29T21:45:10.580Z,6.70
2022-09-29T21:50:14.132Z,6.67
2022-09-29T21:55:17.703Z,6.63
2022-09-29T22:00:21.318Z,6.60
2022-09-29T22:05:24.630Z,6.58
2022-09-29T22:10:28.351Z,6.54
2022-09-29T22:15:33.508Z,6.53
2022-09-29T22:20:38.577Z,6.54
2022-09-29T22:25:46.167Z,6.53
2022-09-29T22:30:49.990Z,6.57
2022-09-29T22:35:57.507Z,6.56
2022-09-29T22:41:00.916Z,6.52
2022-09-29T22:46:04.809Z,6.50
2022-09-29T22:51:09.173Z,6.49
2022-09-29T22:56:17.035Z,6.44
2022-09-29T23:01:22.287Z,6.41
2022-09-29T23:06:25.996Z,6.39
2022-09-29T23:11:31.632Z,6.38
2022-09-29T23:16:35.029Z,6.38
2022-09-29T23:21:38.561Z,6.36
2022-09-29T23:26:41.973Z,6.34
2022-09-29T23:31:49.444Z,6.32
2022-09-29T23:36:53.612Z,6.32
2022-09-29T23:41:56.929Z,6.31
2022-09-29T23:47:00.407Z,6.32
2022-09-29T23:52:04.876Z,6.31
2022-09-29T23:57:08.390Z,6.33
